Time,TemperatureF,DewpointF,PressureIn,WindDirection,WindDirectionDegrees,WindSpeedMPH,WindSpeedGustMPH,Humidity,HourlyPrecipIn,Conditions,Clouds,dailyrainin,SoftwareType,DateUTC
2013-07-26 00:02:00,54.0,51.0,30.02,SE,142,0.0,-999.0,89,-99.99,,,-99.99,,2013-07-26 07:02:00,
2013-07-26 00:12:00,54.0,51.0,30.02,ESE,121,0.0,-999.0,89,-99.99,,,-99.99,,2013-07-26 07:12:00,
2013-07-26 00:22:00,54.0,51.0,30.02,ESE,121,0.0,-999.0,89,-99.99,,,-99.99,,2013-07-26 07:22:00,
2013-07-26 00:32:00,54.0,51.0,30.02,ESE,121,0.0,-999.0,90,-99.99,,,-99.99,,2013-07-26 07:32:00,
2013-07-26 00:43:00,53.0,50.0,30.02,ESE,121,0.0,-999.0,90,-99.99,,,-99.99,,2013-07-26 07:43:00,
2013-07-26 00:52:00,53.0,50.0,30.02,ESE,121,0.0,-999.0,90,-99.99,,,-99.99,,2013-07-26 07:52:00,
2013-07-26 01:02:00,53.0,50.0,30.03,ESE,121,0.0,-999.0,89,-99.99,,,-99.99,,2013-07-26 08:02:00,
2013-07-26 01:12:00,53.0,50.0,30.02,ESE,121,0.0,-999.0,90,-99.99,,,-99.99,,2013-07-26 08:12:00,
2013-07-26 01:21:00,53.0,50.0,30.02,ESE,121,0.0,-999.0,90,-99.99,,,-99.99,,2013-07-26 08:21:00,
2013-07-26 01:32:00,53.0,50.0,30.02,ESE,121,0.0,-999.0,90,-99.99,,,-99.99,,2013-07-26 08:32:00,
2013-07-26 01:44:00,53.0,50.0,30.02,ESE,121,0.0,-999.0,90,-99.99,,,-99.99,,2013-07-26 08:44:00,
2013-07-26 01:52:00,52.0,49.0,30.02,ESE,121,1.0,-999.0,90,-99.99,,,-99.99,,2013-07-26 08:52:00,
2013-07-26 02:02:00,52.0,49.0,30.02,ESE,121,1.0,-999.0,90,-99.99,,,-99.99,,2013-07-26 09:02:00,
2013-07-26 02:12:00,52.0,49.0,30.02,ESE,121,0.0,-999.0,91,-99.99,,,-99.99,,2013-07-26 09:12:00,
2013-07-26 02:32:00,52.0,49.0,30.02,ESE,121,0.0,-999.0,91,-99.99,,,-99.99,,2013-07-26 09:32:00,
2013-07-26 02:43:00,52.0,49.0,30.02,ESE,121,0.0,-999.0,91,-99.99,,,-99.99,,2013-07-26 09:43:00,
2013-07-26 02:52:00,52.0,49.0,30.02,ESE,121,0.0,-999.0,91,-99.99,,,-99.99,,2013-07-26 09:52:00,
2013-07-26 03:02:00,52.0,49.0,30.02,ESE,121,0.0,-999.0,91,-99.99,,,-99.99,,2013-07-26 10:02:00,
2013-07-26 03:12:00,52.0,49.0,30.02,ESE,121,0.0,-999.0,91,-99.99,,,-99.99,,2013-07-26 10:12:00,
2013-07-26 03:22:00,52.0,49.0,30.02,ESE,121,0.0,-999.0,91,-99.99,,,-99.99,,2013-07-26 10:22:00,
2013-07-26 03:32:00,52.0,49.0,30.02,SSE,161,0.0,-999.0,91,-99.99,,,-99.99,,2013-07-26 10:32:00,
2013-07-26 03:42:00,52.0,49.0,30.02,ESE,120,0.0,-999.0,91,-99.99,,,-99.99,,2013-07-26 10:42:00,
2013-07-26 03:52:00,52.0,49.0,30.02,ESE,120,0.0,-999.0,91,-99.99,,,-99.99,,2013-07-26 10:52:00,
2013-07-26 04:02:00,52.0,49.0,30.02,SE,143,0.0,-999.0,90,-99.99,,,-99.99,,2013-07-26 11:02:00,
2013-07-26 04:12:00,52.0,49.0,30.03,SSE,160,0.0,-999.0,90,-99.99,,,-99.99,,2013-07-26 11:12:00,
2013-07-26 04:32:00,52.0,49.0,30.04,SSE,160,0.0,-999.0,90,-99.99,,,-99.99,,2013-07-26 11:32:00,
2013-07-26 04:43:00,52.0,49.0,30.03,SSE,160,0.0,-999.0,91,-99.99,,,-99.99,,2013-07-26 11:43:00,
2013-07-26 04:52:00,52.0,49.0,30.03,SSE,160,0.0,-999.0,91,-99.99,,,-99.99,,2013-07-26 11:52:00,
2013-07-26 05:02:00,52.0,49.0,30.03,SSE,160,0.0,-999.0,91,-99.99,,,-99.99,,2013-07-26 12:02:00,
2013-07-26 05:12:00,52.0,49.0,30.03,SSE,160,0.0,-999.0,91,-99.99,,,-99.99,,2013-07-26 12:12:00,
2013-07-26 05:33:00,52.0,49.0,30.04,SSE,160,0.0,-999.0,91,-99.99,,,-99.99,,2013-07-26 12:33:00,
2013-07-26 05:43:00,52.0,49.0,30.04,SSE,160,0.0,-999.0,91,-99.99,,,-99.99,,2013-07-26 12:43:00,
2013-07-26 05:53:00,52.0,49.0,30.05,SE,142,0.0,-999.0,91,-99.99,,,-99.99,,2013-07-26 12:53:00,
2013-07-26 06:12:00,52.0,50.0,30.05,SE,142,0.0,-999.0,92,-99.99,,,-99.99,,2013-07-26 13:12:00,
2013-07-26 06:32:00,52.0,49.0,30.06,SE,140,0.0,-999.0,91,-99.99,,,-99.99,,2013-07-26 13:32:00,
2013-07-26 06:43:00,52.0,50.0,30.07,SE,140,0.0,-999.0,92,-99.99,,,-99.99,,2013-07-26 13:43:00,
2013-07-26 07:02:00,52.0,50.0,30.07,ESE,117,0.0,-999.0,92,-99.99,,,-99.99,,2013-07-26 14:02:00,
2013-07-26 07:22:00,52.0,50.0,30.08,ESE,117,0.0,-999.0,92,-99.99,,,-99.99,,2013-07-26 14:22:00,
2013-07-26 07:32:00,52.0,50.0,30.08,ESE,117,0.0,-999.0,92,-99.99,,,-99.99,,2013-07-26 14:32:00,
2013-07-26 07:43:00,52.0,50.0,30.08,SSE,148,0.0,-999.0,92,-99.99,,,-99.99,,2013-07-26 14:43:00,
2013-07-26 07:53:00,52.0,50.0,30.08,SSE,148,0.0,-999.0,92,-99.99,,,-99.99,,2013-07-26 14:53:00,
2013-07-26 08:02:00,53.0,50.0,30.09,SSE,148,0.0,-999.0,91,-99.99,,,-99.99,,2013-07-26 15:02:00,
2013-07-26 08:12:00,53.0,51.0,30.09,SSE,148,0.0,-999.0,92,-99.99,,,-99.99,,2013-07-26 15:12:00,
2013-07-26 08:32:00,53.0,51.0,30.09,SSE,148,0.0,-999.0,92,-99.99,,,-99.99,,2013-07-26 15:32:00,
2013-07-26 08:43:00,53.0,50.0,30.10,SSE,148,0.0,-999.0,91,-99.99,,,-99.99,,2013-07-26 15:43:00,
2013-07-26 08:53:00,53.0,50.0,30.10,SSE,148,0.0,-999.0,91,-99.99,,,-99.99,,2013-07-26 15:53:00,
2013-07-26 09:02:00,53.0,50.0,30.10,SSE,148,0.0,-999.0,91,-99.99,,,-99.99,,2013-07-26 16:02:00,
2013-07-26 09:14:00,54.0,51.0,30.10,SSE,148,0.0,-999.0,90,-99.99,,,-99.99,,2013-07-26 16:14:00,
2013-07-26 09:22:00,54.0,51.0,30.10,SSE,148,0.0,-999.0,90,-99.99,,,-99.99,,2013-07-26 16:22:00,
2013-07-26 09:32:00,54.0,51.0,30.10,SSE,148,0.0,-999.0,90,-99.99,,,-99.99,,2013-07-26 16:32:00,
2013-07-26 09:43:00,55.0,52.0,30.10,SSE,148,0.0,-999.0,89,-99.99,,,-99.99,,2013-07-26 16:43:00,
2013-07-26 10:02:00,55.0,51.0,30.10,SSE,148,0.0,-999.0,87,-99.99,,,-99.99,,2013-07-26 17:02:00,
2013-07-26 10:12:00,56.0,52.0,30.10,SSW,211,1.0,-999.0,86,-99.99,,,-99.99,,2013-07-26 17:12:00,
2013-07-26 10:33:00,56.0,52.0,30.10,SE,126,1.0,-999.0,86,-99.99,,,-99.99,,2013-07-26 17:33:00,
2013-07-26 10:43:00,56.0,52.0,30.10,SE,133,2.0,-999.0,86,-99.99,,,-99.99,,2013-07-26 17:43:00,
2013-07-26 10:52:00,56.0,52.0,30.10,SE,133,2.0,-999.0,86,-99.99,,,-99.99,,2013-07-26 17:52:00,
2013-07-26 11:02:00,57.0,53.0,30.10,SE,129,1.0,-999.0,86,-99.99,,,-99.99,,2013-07-26 18:02:00,
2013-07-26 11:12:00,58.0,53.0,30.10,ESE,120,1.0,-999.0,84,-99.99,,,-99.99,,2013-07-26 18:12:00,
2013-07-26 11:32:00,60.0,54.0,30.10,SE,131,1.0,-999.0,81,-99.99,,,-99.99,,2013-07-26 18:32:00,
2013-07-26 11:43:00,62.0,54.0,30.09,SE,134,1.0,-999.0,76,-99.99,,,-99.99,,2013-07-26 18:43:00,
2013-07-26 11:52:00,62.0,54.0,30.09,SE,134,1.0,-999.0,76,-99.99,,,-99.99,,2013-07-26 18:52:00,
2013-07-26 12:02:00,64.0,56.0,30.09,SE,142,2.0,-999.0,74,-99.99,,,-99.99,,2013-07-26 19:02:00,
2013-07-26 12:12:00,66.0,56.0,30.09,SE,132,2.0,-999.0,71,-99.99,,,-99.99,,2013-07-26 19:12:00,
2013-07-26 12:21:00,66.0,56.0,30.09,SE,132,2.0,-999.0,71,-99.99,,,-99.99,,2013-07-26 19:21:00,
2013-07-26 12:32:00,66.0,56.0,30.09,ESE,123,2.0,-999.0,70,-99.99,,,-99.99,,2013-07-26 19:32:00,
2013-07-26 12:43:00,68.0,57.0,30.08,SSE,149,1.0,-999.0,68,-99.99,,,-99.99,,2013-07-26 19:43:00,
2013-07-26 12:52:00,68.0,57.0,30.08,SSE,149,1.0,-999.0,68,-99.99,,,-99.99,,2013-07-26 19:52:00,
2013-07-26 13:02:00,70.0,59.0,30.07,ESE,121,1.0,-999.0,67,-99.99,,,-99.99,,2013-07-26 20:02:00,
2013-07-26 13:11:00,71.0,58.0,30.07,SE,146,1.0,-999.0,64,-99.99,,,-99.99,,2013-07-26 20:11:00,
2013-07-26 13:32:00,71.0,58.0,30.06,SSW,202,1.0,-999.0,63,-99.99,,,-99.99,,2013-07-26 20:32:00,
2013-07-26 13:43:00,73.0,59.0,30.06,ESE,107,1.0,-999.0,62,-99.99,,,-99.99,,2013-07-26 20:43:00,
2013-07-26 15:32:00,75.0,59.0,30.03,NW,323,2.0,-999.0,57,-99.99,,,-99.99,,2013-07-26 22:32:00,
2013-07-26 15:43:00,75.0,58.0,30.03,ESE,121,2.0,-999.0,56,-99.99,,,-99.99,,2013-07-26 22:43:00,
2013-07-26 16:02:00,74.0,58.0,30.02,ENE,78,1.0,-999.0,57,-99.99,,,-99.99,,2013-07-26 23:02:00,
2013-07-26 16:32:00,74.0,57.0,30.01,SE,143,2.0,-999.0,56,-99.99,,,-99.99,,2013-07-26 23:32:00,
2013-07-26 16:52:00,74.0,58.0,30.01,NE,51,2.0,-999.0,57,-99.99,,,-99.99,,2013-07-26 23:52:00,
2013-07-26 17:32:00,70.0,56.0,30.01,SE,138,3.0,-999.0,62,-99.99,,,-99.99,,2013-07-27 00:32:00,
2013-07-26 17:42:00,70.0,56.0,30.01,SE,138,3.0,-999.0,62,-99.99,,,-99.99,,2013-07-27 00:42:00,
2013-07-26 17:53:00,69.0,55.0,30.01,SE,144,2.0,-999.0,62,-99.99,,,-99.99,,2013-07-27 00:53:00,
2013-07-26 18:02:00,67.0,55.0,30.01,SE,137,4.0,-999.0,66,-99.99,,,-99.99,,2013-07-27 01:02:00,
2013-07-26 18:11:00,67.0,55.0,30.01,SE,137,4.0,-999.0,66,-99.99,,,-99.99,,2013-07-27 01:11:00,
2013-07-26 18:22:00,66.0,55.0,30.01,SE,129,3.0,-999.0,67,-99.99,,,-99.99,,2013-07-27 01:22:00,
2013-07-26 18:32:00,65.0,55.0,30.01,SE,136,3.0,-999.0,69,-99.99,,,-99.99,,2013-07-27 01:32:00,
2013-07-26 18:43:00,65.0,55.0,30.01,SE,136,3.0,-999.0,69,-99.99,,,-99.99,,2013-07-27 01:43:00,
2013-07-26 18:53:00,64.0,54.0,30.01,SE,134,4.0,-999.0,70,-99.99,,,-99.99,,2013-07-27 01:53:00,
2013-07-26 19:02:00,64.0,54.0,30.01,SE,134,4.0,-999.0,70,-99.99,,,-99.99,,2013-07-27 02:02:00,
2013-07-26 19:22:00,63.0,54.0,30.00,SSE,162,3.0,-999.0,72,-99.99,,,-99.99,,2013-07-27 02:22:00,
2013-07-26 19:32:00,61.0,52.0,30.01,SE,128,3.0,-999.0,73,-99.99,,,-99.99,,2013-07-27 02:32:00,
2013-07-26 19:52:00,60.0,52.0,30.01,SE,136,2.0,-999.0,75,-99.99,,,-99.99,,2013-07-27 02:52:00,
2013-07-26 20:02:00,59.0,51.0,30.01,SE,130,2.0,-999.0,76,-99.99,,,-99.99,,2013-07-27 03:02:00,
2013-07-26 20:11:00,59.0,51.0,30.01,SE,130,2.0,-999.0,76,-99.99,,,-99.99,,2013-07-27 03:11:00,
2013-07-26 20:22:00,57.0,51.0,30.01,South,175,2.0,-999.0,80,-99.99,,,-99.99,,2013-07-27 03:22:00,
2013-07-26 20:43:00,55.0,50.0,30.02,SE,130,1.0,-999.0,83,-99.99,,,-99.99,,2013-07-27 03:43:00,
2013-07-26 20:52:00,55.0,50.0,30.02,SE,130,1.0,-999.0,83,-99.99,,,-99.99,,2013-07-27 03:52:00,
2013-07-26 21:02:00,55.0,51.0,30.02,ESE,107,2.0,-999.0,85,-99.99,,,-99.99,,2013-07-27 04:02:00,
2013-07-26 21:11:00,55.0,51.0,30.02,ESE,107,2.0,-999.0,85,-99.99,,,-99.99,,2013-07-27 04:11:00,
2013-07-26 21:22:00,54.0,50.0,30.02,SE,136,1.0,-999.0,86,-99.99,,,-99.99,,2013-07-27 04:22:00,
2013-07-26 21:32:00,54.0,50.0,30.02,ESE,123,1.0,-999.0,86,-99.99,,,-99.99,,2013-07-27 04:32:00,
2013-07-26 21:43:00,54.0,50.0,30.03,SSE,148,1.0,-999.0,86,-99.99,,,-99.99,,2013-07-27 04:43:00,
2013-07-26 21:53:00,54.0,50.0,30.03,SSE,148,1.0,-999.0,86,-99.99,,,-99.99,,2013-07-27 04:53:00,
2013-07-26 22:02:00,54.0,50.0,30.03,SSE,148,1.0,-999.0,86,-99.99,,,-99.99,,2013-07-27 05:02:00,
2013-07-26 22:11:00,54.0,50.0,30.03,SE,146,1.0,-999.0,87,-99.99,,,-99.99,,2013-07-27 05:11:00,
2013-07-26 22:22:00,55.0,51.0,30.03,South,176,0.0,-999.0,87,-99.99,,,-99.99,,2013-07-27 05:22:00,
2013-07-26 22:32:00,54.0,51.0,30.04,ESE,115,0.0,-999.0,88,-99.99,,,-99.99,,2013-07-27 05:32:00,
2013-07-26 22:43:00,54.0,51.0,30.04,SE,126,0.0,-999.0,88,-99.99,,,-99.99,,2013-07-27 05:43:00,
2013-07-26 22:52:00,54.0,51.0,30.04,SE,126,0.0,-999.0,88,-99.99,,,-99.99,,2013-07-27 05:52:00,
2013-07-26 23:02:00,54.0,51.0,30.04,SE,127,1.0,-999.0,88,-99.99,,,-99.99,,2013-07-27 06:02:00,
2013-07-26 23:22:00,54.0,51.0,30.04,SE,127,1.0,-999.0,89,-99.99,,,-99.99,,2013-07-27 06:22:00,
2013-07-26 23:43:00,54.0,51.0,30.03,SE,138,0.0,-999.0,89,-99.99,,,-99.99,,2013-07-27 06:43:00,
2013-07-26 23:52:00,54.0,51.0,30.03,SE,138,0.0,-999.0,89,-99.99,,,-99.99,,2013-07-27 06:52:00,